createdAt,value
2018-04-18T00:01:28.412Z,0.00
2018-04-18T00:02:28.335Z,0.00
2018-04-18T00:04:20.262Z,0.00
2018-04-18T00:05:20.197Z,0.00
2018-04-18T00:07:12.108Z,0.00
2018-04-18T00:08:11.986Z,0.00
2018-04-18T00:10:04.749Z,0.00
2018-04-18T00:11:04.686Z,0.00
2018-04-18T00:12:56.563Z,0.00
2018-04-18T00:13:56.462Z,0.00
2018-04-18T00:15:48.383Z,0.00
2018-04-18T00:16:48.241Z,0.00
2018-04-18T00:18:41.008Z,0.00
2018-04-18T00:19:40.949Z,0.00
2018-04-18T00:21:33.731Z,0.00
2018-04-18T00:22:33.653Z,0.00
2018-04-18T00:24:25.410Z,0.00
2018-04-18T00:25:25.345Z,0.00
2018-04-18T00:27:17.243Z,0.00
2018-04-18T00:28:17.170Z,0.00
2018-04-18T00:30:09.951Z,0.00
2018-04-18T00:31:09.901Z,0.00
2018-04-18T00:33:02.716Z,0.00
2018-04-18T00:34:02.632Z,0.00
2018-04-18T00:35:55.377Z,0.00
2018-04-18T00:36:55.305Z,0.00
2018-04-18T00:38:48.082Z,0.00
2018-04-18T00:39:48.015Z,0.00
2018-04-18T00:41:39.842Z,0.00
2018-04-18T00:42:39.779Z,0.00
2018-04-18T00:44:32.526Z,0.00
2018-04-18T00:45:32.470Z,0.00
2018-04-18T00:47:24.271Z,0.00
2018-04-18T00:48:24.177Z,0.00
2018-04-18T00:50:16.042Z,0.00
2018-04-18T00:51:15.933Z,0.00
2018-04-18T00:53:08.720Z,0.00
2018-04-18T00:54:08.643Z,0.00
2018-04-18T00:56:00.541Z,0.00
2018-04-18T00:57:00.470Z,0.00
2018-04-18T00:58:52.456Z,0.00
2018-04-18T00:59:52.364Z,0.00
2018-04-18T01:01:44.221Z,0.00
2018-04-18T01:02:44.148Z,0.00
2018-04-18T01:04:36.960Z,0.00
2018-04-18T01:05:36.900Z,0.00
2018-04-18T01:07:28.678Z,0.00
2018-04-18T01:08:28.579Z,0.00
2018-04-18T01:10:21.356Z,0.00
2018-04-18T01:11:21.284Z,0.00
2018-04-18T01:13:14.077Z,0.00
2018-04-18T01:14:14.042Z,0.00
2018-04-18T01:16:06.766Z,0.00
2018-04-18T01:17:06.706Z,0.00
2018-04-18T01:18:59.510Z,0.00
2018-04-18T01:19:59.412Z,0.00
2018-04-18T01:21:51.237Z,0.00
2018-04-18T01:22:51.144Z,0.00
2018-04-18T01:24:44.070Z,0.00
2018-04-18T01:25:43.934Z,0.00
2018-04-18T01:27:36.760Z,0.00
2018-04-18T01:28:36.679Z,0.00
2018-04-18T01:30:29.444Z,0.00
2018-04-18T01:31:29.387Z,0.00
2018-04-18T01:33:21.302Z,0.00
2018-04-18T01:34:21.247Z,0.00
2018-04-18T01:36:12.978Z,0.00
2018-04-18T01:37:12.913Z,0.00
2018-04-18T01:39:04.791Z,0.00
2018-04-18T01:40:04.701Z,0.00
2018-04-18T01:41:56.525Z,0.00
2018-04-18T01:42:56.446Z,0.00
2018-04-18T01:44:49.216Z,0.00
2018-04-18T01:45:49.142Z,0.00
2018-04-18T01:47:40.936Z,0.00
2018-04-18T01:48:40.873Z,0.00
2018-04-18T01:50:32.700Z,0.00
2018-04-18T01:51:32.633Z,0.00
2018-04-18T01:53:24.418Z,0.00
2018-04-18T01:54:24.341Z,0.00
2018-04-18T01:56:16.239Z,0.00
2018-04-18T01:57:16.104Z,0.00
2018-04-18T01:59:09.000Z,0.00
2018-04-18T02:00:08.862Z,0.00
2018-04-18T02:02:00.618Z,0.00
2018-04-18T02:03:00.588Z,0.00
2018-04-18T02:04:52.341Z,0.00
2018-04-18T02:05:52.267Z,0.00
2018-04-18T02:07:44.030Z,0.00
2018-04-18T02:08:43.950Z,0.00
2018-04-18T02:10:36.787Z,0.00
2018-04-18T02:11:36.692Z,0.00
2018-04-18T02:13:28.504Z,0.00
2018-04-18T02:14:28.424Z,0.00
2018-04-18T02:16:21.196Z,0.00
2018-04-18T02:17:21.146Z,0.00
2018-04-18T02:19:12.978Z,0.00
2018-04-18T02:20:12.884Z,0.00
2018-04-18T02:22:05.660Z,0.00
2018-04-18T02:23:05.597Z,0.00
2018-04-18T02:24:57.507Z,0.00
2018-04-18T02:25:57.445Z,0.00
2018-04-18T02:27:49.190Z,0.00
2018-04-18T02:28:49.124Z,0.00
2018-04-18T02:30:40.977Z,0.00
2018-04-18T02:31:40.960Z,0.00
2018-04-18T02:33:32.674Z,0.00
2018-04-18T02:34:32.609Z,0.00
2018-04-18T02:36:25.444Z,0.00
2018-04-18T02:37:25.290Z,0.00
2018-04-18T02:39:17.166Z,0.00
2018-04-18T02:40:17.097Z,0.00
2018-04-18T02:42:08.840Z,0.00
2018-04-18T02:43:08.771Z,0.00
2018-04-18T02:45:01.572Z,0.00
2018-04-18T02:46:01.502Z,0.00
2018-04-18T02:47:53.258Z,0.00
2018-04-18T02:48:53.268Z,0.00
2018-04-18T02:50:44.984Z,0.00
2018-04-18T02:51:44.911Z,0.00
2018-04-18T02:53:36.690Z,0.00
2018-04-18T02:54:36.618Z,0.00
2018-04-18T02:56:29.397Z,0.00
2018-04-18T02:57:29.335Z,0.00
2018-04-18T02:59:21.211Z,0.00
2018-04-18T03:00:21.137Z,0.00
2018-04-18T03:02:12.892Z,0.00
2018-04-18T03:03:12.854Z,0.00
2018-04-18T03:05:05.645Z,0.00
2018-04-18T03:06:05.547Z,0.00
2018-04-18T03:07:57.309Z,0.00
2018-04-18T03:08:57.246Z,0.00
2018-04-18T03:10:50.041Z,0.00
2018-04-18T03:11:49.966Z,0.00
2018-04-18T03:13:42.794Z,0.00
2018-04-18T03:14:42.685Z,0.00
2018-04-18T03:16:35.455Z,0.00
2018-04-18T03:17:35.410Z,0.00
2018-04-18T03:19:27.160Z,0.00
2018-04-18T03:20:27.070Z,0.00
2018-04-18T03:22:19.861Z,0.00
2018-04-18T03:23:19.796Z,0.00
2018-04-18T03:25:12.684Z,0.00
2018-04-18T03:26:12.587Z,0.00
2018-04-18T03:28:05.360Z,0.00
2018-04-18T03:29:05.340Z,0.00
2018-04-18T03:30:58.090Z,4.00
2018-04-18T03:31:58.009Z,4.00
2018-04-18T03:33:49.783Z,0.00
2018-04-18T03:34:49.870Z,4.00
2018-04-18T03:36:42.491Z,4.00
2018-04-18T03:37:42.423Z,4.00
2018-04-18T03:39:34.341Z,4.00
2018-04-18T03:40:34.252Z,8.00
2018-04-18T03:42:26.110Z,8.00
2018-04-18T03:43:26.013Z,12.00
2018-04-18T03:45:18.806Z,12.00
2018-04-18T03:46:18.711Z,16.00
2018-04-18T03:48:11.469Z,20.00
2018-04-18T03:49:11.409Z,24.00
2018-04-18T03:51:04.223Z,32.00
2018-04-18T03:52:04.118Z,32.00
2018-04-18T03:53:56.925Z,40.00
2018-04-18T03:54:56.824Z,48.00
2018-04-18T03:56:49.611Z,56.00
2018-04-18T03:57:49.532Z,64.00
2018-04-18T03:59:42.336Z,80.00
2018-04-18T04:00:42.246Z,88.00
2018-04-18T04:02:35.052Z,108.00
2018-04-18T04:03:34.962Z,120.00
2018-04-18T04:05:26.997Z,140.00
2018-04-18T04:06:26.735Z,148.00
2018-04-18T04:08:18.671Z,168.00
2018-04-18T04:09:18.581Z,176.00
2018-04-18T04:11:11.409Z,200.00
2018-04-18T04:12:11.299Z,212.00
2018-04-18T04:14:03.057Z,244.00
2018-04-18T04:15:02.995Z,260.00
2018-04-18T04:16:54.843Z,292.00
2018-04-18T04:17:54.761Z,308.00
2018-04-18T04:19:46.659Z,344.00
2018-04-18T04:20:46.606Z,364.00
2018-04-18T04:22:39.374Z,404.00
2018-04-18T04:23:39.320Z,428.00
2018-04-18T04:25:31.220Z,472.00
2018-04-18T04:26:31.153Z,496.00
2018-04-18T04:28:23.902Z,544.00
2018-04-18T04:29:23.844Z,576.00
2018-04-18T04:31:15.633Z,624.00
2018-04-18T04:32:15.569Z,648.00
2018-04-18T04:34:07.538Z,692.00
2018-04-18T04:35:07.472Z,720.00
2018-04-18T04:36:59.286Z,760.00
2018-04-18T04:37:59.187Z,776.00
2018-04-18T04:39:51.065Z,848.00
2018-04-18T04:40:50.907Z,900.00
2018-04-18T04:42:42.705Z,948.00
2018-04-18T04:43:42.629Z,952.00
2018-04-18T04:45:35.460Z,1008.00
2018-04-18T04:46:35.392Z,1044.00
2018-04-18T04:48:28.187Z,1060.00
2018-04-18T04:49:28.103Z,1048.00
2018-04-18T04:51:21.257Z,1064.00
2018-04-18T04:52:21.043Z,1088.00
2018-04-18T04:54:12.930Z,1192.00
2018-04-18T04:55:12.853Z,1244.00
2018-04-18T04:57:04.645Z,1344.00
2018-04-18T04:58:04.580Z,1408.00
2018-04-18T04:59:56.582Z,1484.00
2018-04-18T05:00:56.475Z,1496.00
2018-04-18T05:02:49.246Z,1512.00
2018-04-18T05:03:49.188Z,1544.00
2018-04-18T05:05:42.018Z,1616.00
2018-04-18T05:06:41.889Z,1648.00
2018-04-18T05:08:34.707Z,1752.00
2018-04-18T05:09:34.612Z,1784.00
2018-04-18T05:11:26.621Z,1844.00
2018-04-18T05:12:26.619Z,1884.00
2018-04-18T05:14:19.291Z,1948.00
2018-04-18T05:15:19.214Z,1984.00
2018-04-18T05:17:12.023Z,2064.00
2018-04-18T05:18:11.942Z,2100.00
2018-04-18T05:20:03.882Z,2148.00
2018-04-18T05:21:03.822Z,2168.00
2018-04-18T05:22:56.631Z,2220.00
2018-04-18T05:23:56.557Z,2252.00
2018-04-18T05:25:48.525Z,2320.00
2018-04-18T05:26:48.459Z,2336.00
2018-04-18T05:28:40.235Z,2264.00
2018-04-18T05:29:40.161Z,2192.00
2018-04-18T05:31:32.006Z,2492.00
2018-04-18T05:32:31.985Z,2568.00
2018-04-18T05:34:24.750Z,2692.00
2018-04-18T05:35:24.669Z,2712.00
2018-04-18T05:37:16.594Z,2952.00
2018-04-18T05:38:16.537Z,3076.00
2018-04-18T05:40:09.382Z,3216.00
2018-04-18T05:41:09.286Z,3244.00
2018-04-18T05:43:02.085Z,3272.00
2018-04-18T05:44:02.012Z,3296.00
2018-04-18T05:45:54.938Z,3468.00
2018-04-18T05:46:54.780Z,3656.00
2018-04-18T05:48:47.541Z,3956.00
2018-04-18T05:49:47.462Z,4080.00
2018-04-18T05:51:39.285Z,4376.00
2018-04-18T05:52:39.235Z,4560.00
2018-04-18T05:54:31.997Z,4596.00
2018-04-18T05:55:31.929Z,4836.00
2018-04-18T05:57:23.785Z,5032.00
2018-04-18T05:58:23.662Z,5156.00
2018-04-18T06:00:15.573Z,4948.00
2018-04-18T06:01:15.488Z,5184.00
2018-04-18T06:03:08.274Z,5300.00
2018-04-18T06:04:08.189Z,5468.00
2018-04-18T06:06:00.980Z,6296.00
2018-04-18T06:07:00.915Z,6644.00
2018-04-18T06:08:53.707Z,8308.00
2018-04-18T06:09:53.625Z,9264.00
2018-04-18T06:11:46.405Z,9680.00
2018-04-18T06:12:46.374Z,8816.00
2018-04-18T06:14:39.134Z,9036.00
2018-04-18T06:15:39.094Z,10920.00
2018-04-18T06:17:30.849Z,13216.00
2018-04-18T06:18:30.800Z,13952.00
2018-04-18T06:20:23.770Z,15072.00
2018-04-18T06:21:23.509Z,15392.00
2018-04-18T06:23:17.176Z,14176.00
2018-04-18T06:24:17.103Z,13440.00
2018-04-18T06:26:09.952Z,9968.00
2018-04-18T06:27:09.827Z,9712.00
2018-04-18T06:29:01.821Z,13728.00
2018-04-18T06:30:01.744Z,16128.00
2018-04-18T06:31:53.606Z,20224.00
2018-04-18T06:32:53.446Z,20320.00
2018-04-18T06:34:46.335Z,18304.00
2018-04-18T06:35:46.204Z,18688.00
2018-04-18T06:37:39.001Z,20576.00
2018-04-18T06:38:38.929Z,20096.00
2018-04-18T06:40:31.744Z,18272.00
2018-04-18T06:41:31.683Z,18976.00
2018-04-18T06:43:24.511Z,20288.00
2018-04-18T06:44:24.427Z,19808.00
2018-04-18T06:46:17.233Z,19104.00
2018-04-18T06:47:17.192Z,19680.00
2018-04-18T06:49:10.038Z,22272.00
2018-04-18T06:50:09.987Z,20832.00
2018-04-18T06:52:02.819Z,18752.00
2018-04-18T06:53:02.720Z,19328.00
2018-04-18T06:54:55.564Z,22112.00
2018-04-18T06:55:55.470Z,18560.00
2018-04-18T06:57:48.342Z,14848.00
2018-04-18T06:58:48.280Z,16000.00
2018-04-18T07:00:41.080Z,12832.00
2018-04-18T07:01:41.008Z,12864.00
2018-04-18T07:03:33.839Z,13984.00
2018-04-18T07:04:33.763Z,14944.00
2018-04-18T07:06:26.576Z,17984.00
2018-04-18T07:07:26.516Z,18720.00
2018-04-18T07:09:19.323Z,12644.00
2018-04-18T07:10:19.257Z,11304.00
2018-04-18T07:12:12.051Z,11516.00
2018-04-18T07:13:12.005Z,12288.00
2018-04-18T07:15:04.805Z,19488.00
2018-04-18T07:16:04.731Z,19872.00
2018-04-18T07:17:57.535Z,21376.00
2018-04-18T07:18:57.538Z,23776.00
2018-04-18T07:20:50.321Z,21184.00
2018-04-18T07:21:50.225Z,20224.00
2018-04-18T07:23:43.093Z,20992.00
2018-04-18T07:24:42.984Z,21280.00
2018-04-18T07:26:35.794Z,22432.00
2018-04-18T07:27:35.758Z,23168.00
2018-04-18T07:29:28.546Z,22688.00
2018-04-18T07:30:28.472Z,22560.00
2018-04-18T07:32:21.295Z,23424.00
2018-04-18T07:33:21.226Z,22560.00
2018-04-18T07:35:14.066Z,23584.00
2018-04-18T07:36:13.987Z,24576.00
2018-04-18T07:38:06.783Z,27520.00
2018-04-18T07:39:06.731Z,26240.00
2018-04-18T07:40:59.569Z,23840.00
2018-04-18T07:41:59.519Z,24608.00
2018-04-18T07:43:52.348Z,27008.00
2018-04-18T07:44:52.299Z,29344.00
2018-04-18T07:46:45.129Z,28032.00
2018-04-18T07:47:45.031Z,27808.00
2018-04-18T07:49:37.819Z,29536.00
2018-04-18T07:50:37.759Z,29952.00
2018-04-18T07:52:30.643Z,35296.00
2018-04-18T07:53:30.556Z,35744.00
2018-04-18T07:55:23.430Z,31200.00
2018-04-18T07:56:23.331Z,34432.00
2018-04-18T07:58:16.323Z,43424.00
2018-04-18T07:59:16.253Z,45184.00
2018-04-18T08:01:09.066Z,50336.00
2018-04-18T08:02:08.998Z,52224.00
2018-04-18T08:04:01.820Z,37184.00
2018-04-18T08:05:01.782Z,30816.00
2018-04-18T08:06:54.575Z,28448.00
2018-04-18T08:07:54.514Z,25056.00
2018-04-18T08:09:47.333Z,21760.00
2018-04-18T08:10:47.280Z,21408.00
2018-04-18T08:12:40.107Z,19680.00
2018-04-18T08:13:40.038Z,19648.00
2018-04-18T08:15:32.842Z,22080.00
2018-04-18T08:16:32.796Z,21920.00
2018-04-18T08:18:25.593Z,21504.00
2018-04-18T08:19:25.575Z,21472.00
2018-04-18T08:21:18.380Z,21056.00
2018-04-18T08:22:18.318Z,20896.00
2018-04-18T08:24:11.116Z,21088.00
2018-04-18T08:25:11.066Z,21088.00
2018-04-18T08:27:03.890Z,21184.00
2018-04-18T08:28:03.839Z,21120.00
2018-04-18T08:29:56.669Z,21024.00
2018-04-18T08:30:56.609Z,20768.00
2018-04-18T08:32:49.465Z,20512.00
2018-04-18T08:33:49.381Z,19456.00
2018-04-18T08:35:42.227Z,18176.00
2018-04-18T08:36:42.141Z,18528.00
2018-04-18T08:38:34.965Z,19968.00
2018-04-18T08:39:34.914Z,20640.00
2018-04-18T08:41:27.769Z,20416.00
2018-04-18T08:42:27.760Z,20192.00
2018-04-18T08:44:20.547Z,19616.00
2018-04-18T08:45:20.486Z,20160.00
2018-04-18T08:47:13.354Z,20544.00
2018-04-18T08:48:13.265Z,20160.00
2018-04-18T08:50:06.078Z,19296.00
2018-04-18T08:51:06.029Z,18880.00
2018-04-18T08:52:58.851Z,19872.00
2018-04-18T08:53:58.814Z,20160.00
2018-04-18T08:55:51.653Z,24704.00
2018-04-18T08:56:51.575Z,32608.00
2018-04-18T08:58:44.392Z,41600.00
2018-04-18T08:59:44.343Z,40576.00
2018-04-18T09:01:37.170Z,37952.00
2018-04-18T09:02:37.119Z,28192.00
2018-04-18T09:04:29.941Z,31360.00
2018-04-18T09:05:29.874Z,16256.00
2018-04-18T09:07:22.714Z,24320.00
2018-04-18T09:08:22.647Z,25888.00
2018-04-18T09:10:15.483Z,40704.00
2018-04-18T09:11:15.424Z,37056.00
2018-04-18T09:13:08.276Z,55648.00
2018-04-18T09:14:08.210Z,35136.00
2018-04-18T09:16:01.095Z,25888.00
2018-04-18T09:17:00.982Z,30176.00
2018-04-18T09:18:53.804Z,44064.00
2018-04-18T09:19:53.735Z,45952.00
2018-04-18T09:21:46.592Z,47584.00
2018-04-18T09:22:46.533Z,50176.00
2018-04-18T09:24:39.349Z,52192.00
2018-04-18T09:25:39.304Z,51392.00
2018-04-18T09:27:32.167Z,57280.00
2018-04-18T09:28:32.152Z,18080.00
2018-04-18T09:30:24.897Z,45248.00
2018-04-18T09:31:24.859Z,54016.00
2018-04-18T09:33:18.637Z,51392.00
2018-04-18T09:34:18.576Z,53312.00
2018-04-18T09:36:11.414Z,57376.00
2018-04-18T09:37:11.424Z,55712.00
2018-04-18T09:39:04.213Z,56864.00
2018-04-18T09:40:04.164Z,58048.00
2018-04-18T09:41:56.976Z,56480.00
2018-04-18T09:42:56.918Z,54752.00
2018-04-18T09:44:49.762Z,58336.00
2018-04-18T09:45:49.695Z,62464.00
2018-04-18T09:47:42.556Z,63904.00
2018-04-18T09:48:42.523Z,61184.00
2018-04-18T09:50:35.271Z,58912.00
2018-04-18T09:51:35.222Z,58976.00
2018-04-18T09:53:28.085Z,58976.00
2018-04-18T09:54:28.023Z,61728.00
2018-04-18T09:56:20.822Z,66048.00
2018-04-18T09:57:20.780Z,67584.00
2018-04-18T09:59:13.631Z,64320.00
2018-04-18T10:00:13.576Z,64736.00
2018-04-18T10:02:06.414Z,62976.00
2018-04-18T10:03:06.366Z,60768.00
2018-04-18T10:04:59.189Z,63200.00
2018-04-18T10:05:59.120Z,67232.00
2018-04-18T10:07:51.962Z,65376.00
2018-04-18T10:08:51.896Z,64000.00
2018-04-18T10:10:44.723Z,64832.00
2018-04-18T10:11:44.677Z,62368.00
2018-04-18T10:13:37.523Z,56896.00
2018-04-18T10:14:37.459Z,56864.00
2018-04-18T10:16:30.287Z,56864.00
2018-04-18T10:17:30.207Z,61120.00
2018-04-18T10:19:23.126Z,61376.00
2018-04-18T10:20:23.103Z,61280.00
2018-04-18T10:22:15.834Z,64480.00
2018-04-18T10:23:15.797Z,64832.00
2018-04-18T10:25:08.722Z,66560.00
2018-04-18T10:26:08.585Z,66240.00
2018-04-18T10:28:01.466Z,65472.00
2018-04-18T10:29:01.369Z,64800.00
2018-04-18T10:30:54.170Z,61856.00
2018-04-18T10:31:54.129Z,62592.00
2018-04-18T10:33:46.957Z,59456.00
2018-04-18T10:34:46.893Z,59008.00
2018-04-18T10:36:39.701Z,58624.00
2018-04-18T10:37:39.649Z,59968.00
2018-04-18T10:39:32.536Z,58720.00
2018-04-18T10:40:32.468Z,57728.00
2018-04-18T10:42:25.313Z,58496.00
2018-04-18T10:43:25.262Z,58048.00
2018-04-18T10:45:18.098Z,54560.00
2018-04-18T10:46:18.015Z,55040.00
2018-04-18T10:48:10.863Z,53728.00
2018-04-18T10:49:10.820Z,56064.00
2018-04-18T10:51:04.117Z,58848.00
2018-04-18T10:52:04.070Z,61088.00
2018-04-18T10:53:57.039Z,56416.00
2018-04-18T10:54:56.978Z,55232.00
2018-04-18T10:56:49.850Z,54304.00
2018-04-18T10:57:49.734Z,56640.00
2018-04-18T10:59:42.807Z,55904.00
2018-04-18T11:00:42.713Z,56064.00
2018-04-18T11:02:35.575Z,55904.00
2018-04-18T11:03:35.525Z,53568.00
2018-04-18T11:05:28.346Z,54496.00
2018-04-18T11:06:28.288Z,55168.00
2018-04-18T11:08:21.121Z,51648.00
2018-04-18T11:09:21.084Z,28224.00
2018-04-18T11:11:13.955Z,8872.00
2018-04-18T11:12:13.886Z,8624.00
2018-04-18T11:14:06.855Z,8196.00
2018-04-18T11:15:06.817Z,8056.00
2018-04-18T11:16:59.614Z,7884.00
2018-04-18T11:17:59.569Z,7804.00
2018-04-18T11:19:52.409Z,7660.00
2018-04-18T11:20:52.345Z,7644.00
2018-04-18T11:22:45.152Z,7556.00
2018-04-18T11:23:45.099Z,7520.00
2018-04-18T11:25:37.940Z,7368.00
2018-04-18T11:26:37.931Z,7296.00
2018-04-18T11:28:30.819Z,7204.00
2018-04-18T11:29:30.688Z,7168.00
2018-04-18T11:31:23.489Z,7100.00
2018-04-18T11:32:23.439Z,6984.00
2018-04-18T11:34:16.252Z,6852.00
2018-04-18T11:35:16.185Z,6856.00
2018-04-18T11:37:08.976Z,6768.00
2018-04-18T11:38:08.977Z,6764.00
2018-04-18T11:40:00.889Z,6796.00
2018-04-18T11:41:00.890Z,6684.00
2018-04-18T11:42:53.668Z,6508.00
2018-04-18T11:43:53.604Z,6520.00
2018-04-18T11:45:46.732Z,6440.00
2018-04-18T11:46:46.363Z,6344.00
2018-04-18T11:48:39.160Z,6276.00
2018-04-18T11:49:39.109Z,6260.00
2018-04-18T11:51:31.955Z,6148.00
2018-04-18T11:52:31.846Z,6060.00
2018-04-18T11:54:24.663Z,5956.00
2018-04-18T11:55:24.620Z,5932.00
2018-04-18T11:57:17.404Z,5772.00
2018-04-18T11:58:17.346Z,5792.00
2018-04-18T12:00:10.162Z,5672.00
2018-04-18T12:01:10.248Z,5596.00
2018-04-18T12:03:02.894Z,5540.00
2018-04-18T12:04:02.859Z,5520.00
2018-04-18T12:05:55.741Z,5388.00
2018-04-18T12:06:55.676Z,5324.00
2018-04-18T12:08:48.482Z,5188.00
2018-04-18T12:09:48.413Z,5124.00
2018-04-18T12:11:41.320Z,5020.00
2018-04-18T12:12:41.215Z,4952.00
2018-04-18T12:14:33.994Z,4856.00
2018-04-18T12:15:33.936Z,4812.00
2018-04-18T12:17:26.776Z,4832.00
2018-04-18T12:18:26.681Z,4836.00
2018-04-18T12:20:19.556Z,4848.00
2018-04-18T12:21:19.443Z,4836.00
2018-04-18T12:23:12.206Z,4784.00
2018-04-18T12:24:12.145Z,4756.00
2018-04-18T12:26:04.945Z,4760.00
2018-04-18T12:27:04.868Z,4812.00
2018-04-18T12:28:57.674Z,4648.00
2018-04-18T12:29:57.594Z,4588.00
2018-04-18T12:31:50.563Z,4540.00
2018-04-18T12:32:50.470Z,4540.00
2018-04-18T12:34:43.304Z,4500.00
2018-04-18T12:35:43.240Z,4476.00
2018-04-18T12:37:36.051Z,4428.00
2018-04-18T12:38:35.984Z,4372.00
2018-04-18T12:40:28.785Z,4316.00
2018-04-18T12:41:28.707Z,4308.00
2018-04-18T12:43:21.503Z,4296.00
2018-04-18T12:44:21.447Z,4272.00
2018-04-18T12:46:14.288Z,4192.00
2018-04-18T12:47:14.267Z,4152.00
2018-04-18T12:49:07.074Z,4120.00
2018-04-18T12:50:06.975Z,4116.00
2018-04-18T12:51:59.790Z,4088.00
2018-04-18T12:52:59.709Z,4104.00
2018-04-18T12:54:52.496Z,4100.00
2018-04-18T12:55:52.519Z,4072.00
2018-04-18T12:57:45.245Z,3968.00
2018-04-18T12:58:45.218Z,3952.00
2018-04-18T13:00:38.071Z,3848.00
2018-04-18T13:01:37.995Z,3836.00
2018-04-18T13:03:30.856Z,3792.00
2018-04-18T13:04:30.844Z,3796.00
2018-04-18T13:06:23.649Z,3784.00
2018-04-18T13:07:23.544Z,3760.00
2018-04-18T13:09:16.335Z,3724.00
2018-04-18T13:10:16.280Z,3720.00
2018-04-18T13:12:08.160Z,3724.00
2018-04-18T13:13:08.123Z,3708.00
2018-04-18T13:15:00.880Z,3676.00
2018-04-18T13:16:00.824Z,3620.00
2018-04-18T13:17:53.688Z,3628.00
2018-04-18T13:18:53.577Z,3608.00
2018-04-18T13:20:46.394Z,3532.00
2018-04-18T13:21:46.333Z,3524.00
2018-04-18T13:23:39.148Z,3468.00
2018-04-18T13:24:39.093Z,3444.00
2018-04-18T13:26:31.867Z,3440.00
2018-04-18T13:27:31.795Z,3420.00
2018-04-18T13:29:24.624Z,3432.00
2018-04-18T13:30:24.569Z,3416.00
2018-04-18T13:32:17.346Z,3400.00
2018-04-18T13:33:17.273Z,3400.00
2018-04-18T13:35:10.080Z,3344.00
2018-04-18T13:36:10.007Z,3320.00
2018-04-18T13:38:02.820Z,3232.00
2018-04-18T13:39:02.749Z,3224.00
2018-04-18T13:40:55.557Z,3232.00
2018-04-18T13:41:55.515Z,3204.00
2018-04-18T13:43:48.377Z,3196.00
2018-04-18T13:44:48.263Z,3184.00
2018-04-18T13:46:41.069Z,3188.00
2018-04-18T13:47:40.997Z,3188.00
2018-04-18T13:49:33.771Z,3156.00
2018-04-18T13:50:33.712Z,3124.00
2018-04-18T13:52:26.603Z,3168.00
2018-04-18T13:53:26.459Z,3112.00
2018-04-18T13:55:19.383Z,3088.00
2018-04-18T13:56:19.284Z,3084.00
2018-04-18T13:58:12.112Z,3060.00
2018-04-18T13:59:12.028Z,3068.00
2018-04-18T14:01:04.849Z,3040.00
2018-04-18T14:02:04.795Z,3032.00
2018-04-18T14:03:57.572Z,3032.00
2018-04-18T14:04:57.502Z,3024.00
2018-04-18T14:06:50.313Z,3000.00
2018-04-18T14:07:50.283Z,2984.00
2018-04-18T14:09:43.103Z,2968.00
2018-04-18T14:10:42.955Z,2980.00
2018-04-18T14:12:35.814Z,2944.00
2018-04-18T14:13:35.675Z,2928.00
2018-04-18T14:15:28.473Z,2912.00
2018-04-18T14:16:28.436Z,2920.00
2018-04-18T14:18:21.241Z,2928.00
2018-04-18T14:19:21.167Z,2920.00
2018-04-18T14:21:13.962Z,2896.00
2018-04-18T14:22:13.902Z,2916.00
2018-04-18T14:24:06.711Z,2888.00
2018-04-18T14:25:06.683Z,2880.00
2018-04-18T14:26:59.463Z,2860.00
2018-04-18T14:27:59.415Z,2856.00
2018-04-18T14:29:52.245Z,2824.00
2018-04-18T14:30:52.141Z,2836.00
2018-04-18T14:32:44.951Z,2796.00
2018-04-18T14:33:44.906Z,2788.00
2018-04-18T14:35:37.711Z,2780.00
2018-04-18T14:36:37.663Z,2776.00
2018-04-18T14:38:30.564Z,2760.00
2018-04-18T14:39:30.498Z,2752.00
2018-04-18T14:41:23.301Z,2748.00
2018-04-18T14:42:23.235Z,2744.00
2018-04-18T14:44:16.079Z,2740.00
2018-04-18T14:45:16.026Z,2736.00
2018-04-18T14:47:09.626Z,2728.00
2018-04-18T14:48:09.565Z,2720.00
2018-04-18T14:50:02.384Z,2716.00
2018-04-18T14:51:02.296Z,2716.00
2018-04-18T14:52:55.180Z,2716.00
2018-04-18T14:53:55.059Z,2708.00
2018-04-18T14:55:47.879Z,2676.00
2018-04-18T14:56:47.831Z,2664.00
2018-04-18T14:58:40.634Z,2640.00
2018-04-18T14:59:40.552Z,2628.00
2018-04-18T15:01:33.412Z,2620.00
2018-04-18T15:02:33.336Z,2608.00
2018-04-18T15:04:26.153Z,2588.00
2018-04-18T15:05:26.104Z,2564.00
2018-04-18T15:07:18.891Z,2508.00
2018-04-18T15:08:18.825Z,2496.00
2018-04-18T15:10:11.615Z,2464.00
2018-04-18T15:11:11.571Z,2456.00
2018-04-18T15:13:04.407Z,2384.00
2018-04-18T15:14:04.311Z,2360.00
2018-04-18T15:15:57.115Z,2356.00
2018-04-18T15:16:57.051Z,2344.00
2018-04-18T15:18:49.881Z,2312.00
2018-04-18T15:19:49.916Z,2300.00
2018-04-18T15:21:42.688Z,2244.00
2018-04-18T15:22:42.622Z,2216.00
2018-04-18T15:24:35.495Z,2264.00
2018-04-18T15:25:35.351Z,2264.00
2018-04-18T15:27:28.160Z,2256.00
2018-04-18T15:28:28.097Z,2260.00
2018-04-18T15:30:20.895Z,2244.00
2018-04-18T15:31:20.826Z,2220.00
2018-04-18T15:33:13.642Z,2220.00
2018-04-18T15:34:13.586Z,2208.00
2018-04-18T15:36:06.415Z,2184.00
2018-04-18T15:37:06.319Z,2148.00
2018-04-18T15:38:59.140Z,2128.00
2018-04-18T15:39:59.032Z,2108.00
2018-04-18T15:41:51.861Z,2072.00
2018-04-18T15:42:51.792Z,2052.00
2018-04-18T15:44:44.623Z,2032.00
2018-04-18T15:45:44.548Z,2008.00
2018-04-18T15:47:37.383Z,1988.00
2018-04-18T15:48:37.289Z,1984.00
2018-04-18T15:50:30.226Z,1980.00
2018-04-18T15:51:30.293Z,1976.00
2018-04-18T15:53:22.906Z,1960.00
2018-04-18T15:54:22.819Z,1956.00
2018-04-18T15:56:15.648Z,1940.00
2018-04-18T15:57:15.591Z,1940.00
2018-04-18T15:59:08.386Z,1932.00
2018-04-18T16:00:08.323Z,1920.00
2018-04-18T16:02:01.121Z,1900.00
2018-04-18T16:03:01.078Z,1880.00
2018-04-18T16:04:53.874Z,1856.00
2018-04-18T16:05:53.797Z,1844.00
2018-04-18T16:07:46.706Z,1820.00
2018-04-18T16:08:46.588Z,1812.00
2018-04-18T16:10:39.400Z,1772.00
2018-04-18T16:11:39.317Z,1764.00
2018-04-18T16:13:32.144Z,1728.00
2018-04-18T16:14:32.066Z,1700.00
2018-04-18T16:16:25.004Z,1644.00
2018-04-18T16:17:24.936Z,1640.00
2018-04-18T16:19:17.793Z,1620.00
2018-04-18T16:20:17.665Z,1584.00
2018-04-18T16:22:10.452Z,1580.00
2018-04-18T16:23:10.384Z,1556.00
2018-04-18T16:25:03.192Z,1540.00
2018-04-18T16:26:03.153Z,1516.00
2018-04-18T16:27:55.925Z,1492.00
2018-04-18T16:28:55.872Z,1468.00
2018-04-18T16:30:47.828Z,1448.00
2018-04-18T16:31:47.763Z,1444.00
2018-04-18T16:33:40.554Z,1416.00
2018-04-18T16:34:40.470Z,1248.00
2018-04-18T16:36:33.289Z,1380.00
2018-04-18T16:37:33.221Z,1360.00
2018-04-18T16:39:26.089Z,1336.00
2018-04-18T16:40:26.007Z,1328.00
2018-04-18T16:42:18.853Z,1300.00
2018-04-18T16:43:18.762Z,1288.00
2018-04-18T16:45:11.600Z,1260.00
2018-04-18T16:46:11.513Z,1256.00
2018-04-18T16:48:04.321Z,1244.00
2018-04-18T16:49:04.262Z,1228.00
2018-04-18T16:50:57.399Z,1204.00
2018-04-18T16:51:57.254Z,1184.00
2018-04-18T16:53:50.036Z,1168.00
2018-04-18T16:54:49.972Z,1152.00
2018-04-18T16:56:42.809Z,1124.00
2018-04-18T16:57:42.769Z,1112.00
2018-04-18T16:59:35.531Z,1080.00
2018-04-18T17:00:35.456Z,1068.00
2018-04-18T17:02:28.270Z,1020.00
2018-04-18T17:03:28.206Z,1000.00
2018-04-18T17:05:21.068Z,972.00
2018-04-18T17:06:20.958Z,956.00
2018-04-18T17:08:13.772Z,924.00
2018-04-18T17:09:13.715Z,912.00
2018-04-18T17:11:06.593Z,896.00
2018-04-18T17:12:06.522Z,872.00
2018-04-18T17:13:59.419Z,844.00
2018-04-18T17:14:59.355Z,824.00
2018-04-18T17:16:52.230Z,792.00
2018-04-18T17:17:52.109Z,768.00
2018-04-18T17:19:44.940Z,736.00
2018-04-18T17:20:44.852Z,720.00
2018-04-18T17:22:37.706Z,692.00
2018-04-18T17:23:37.603Z,680.00
2018-04-18T17:25:30.401Z,656.00
2018-04-18T17:26:30.338Z,636.00
2018-04-18T17:28:23.223Z,612.00
2018-04-18T17:29:23.083Z,596.00
2018-04-18T17:31:15.973Z,568.00
2018-04-18T17:32:15.833Z,556.00
2018-04-18T17:34:08.667Z,532.00
2018-04-18T17:35:08.588Z,516.00
2018-04-18T17:37:01.400Z,492.00
2018-04-18T17:38:01.322Z,480.00
2018-04-18T17:39:54.114Z,448.00